createdAt,value
2018-01-22T00:01:45.242Z,29.40
2018-01-22T00:04:13.046Z,19.70
2018-01-22T00:06:40.843Z,32.80
2018-01-22T00:09:08.632Z,19.63
2018-01-22T00:11:36.468Z,28.27
2018-01-22T00:14:04.162Z,33.10
2018-01-22T00:16:31.954Z,29.90
2018-01-22T00:19:05.020Z,23.37
2018-01-22T00:21:32.845Z,29.80
2018-01-22T00:24:00.694Z,27.97
2018-01-22T00:26:28.489Z,13.87
2018-01-22T00:28:56.280Z,28.70
2018-01-22T00:31:24.063Z,29.33
2018-01-22T00:33:52.195Z,17.47
2018-01-22T00:36:19.978Z,23.50
2018-01-22T00:38:49.152Z,24.70
2018-01-22T00:41:17.058Z,20.00
2018-01-22T00:43:44.967Z,22.60
2018-01-22T00:46:12.885Z,28.17
2018-01-22T00:48:40.690Z,19.20
2018-01-22T00:51:08.480Z,33.23
2018-01-22T00:53:36.291Z,17.37
2018-01-22T00:56:04.153Z,32.63
2018-01-22T00:58:31.950Z,28.70
2018-01-22T01:00:59.842Z,19.10
2018-01-22T01:03:27.640Z,29.43
2018-01-22T01:05:55.407Z,27.67
2018-01-22T01:08:23.201Z,25.20
2018-01-22T01:10:51.845Z,30.90
2018-01-22T01:13:19.669Z,30.27
2018-01-22T01:15:47.430Z,36.80
2018-01-22T01:18:15.216Z,32.80
2018-01-22T01:20:42.985Z,26.50
2018-01-22T01:23:10.768Z,41.03
2018-01-22T01:25:39.932Z,36.40
2018-01-22T01:28:07.745Z,41.50
2018-01-22T01:30:35.535Z,31.47
2018-01-22T01:33:03.331Z,43.07
2018-01-22T01:35:31.119Z,38.43
2018-01-22T01:37:58.918Z,50.93
2018-01-22T01:40:26.665Z,33.00
2018-01-22T01:42:54.467Z,42.43
2018-01-22T01:45:22.235Z,37.87
2018-01-22T01:47:50.021Z,50.00
2018-01-22T01:50:17.828Z,29.10
2018-01-22T01:52:45.650Z,66.47
2018-01-22T01:55:13.438Z,43.80
2018-01-22T01:57:41.182Z,30.27
2018-01-22T02:00:08.967Z,38.47
2018-01-22T02:02:37.520Z,34.87
2018-01-22T02:05:05.315Z,23.57
2018-01-22T02:07:33.098Z,26.57
2018-01-22T02:10:00.948Z,24.20
2018-01-22T02:12:28.727Z,31.03
2018-01-22T02:14:57.283Z,27.10
2018-01-22T02:17:25.036Z,42.37
2018-01-22T02:19:52.856Z,30.20
2018-01-22T02:22:20.626Z,29.10
2018-01-22T02:24:49.940Z,27.77
2018-01-22T02:27:17.707Z,29.67
2018-01-22T02:29:45.496Z,37.20
2018-01-22T02:32:13.282Z,34.70
2018-01-22T02:34:41.857Z,34.43
2018-01-22T02:37:09.634Z,34.20
2018-01-22T02:39:37.435Z,32.57
2018-01-22T02:42:05.180Z,37.77
2018-01-22T02:44:32.951Z,35.23
2018-01-22T02:47:00.712Z,25.47
2018-01-22T02:49:28.516Z,32.33
2018-01-22T02:51:56.271Z,39.70
2018-01-22T02:54:24.093Z,28.30
2018-01-22T02:56:51.927Z,31.67
2018-01-22T02:59:19.726Z,26.87
2018-01-22T03:01:47.502Z,27.47
2018-01-22T03:04:15.874Z,35.70
2018-01-22T03:06:43.854Z,23.97
2018-01-22T03:09:11.647Z,32.13
2018-01-22T03:11:39.457Z,35.70
2018-01-22T03:14:07.268Z,41.97
2018-01-22T03:16:35.064Z,42.10
2018-01-22T03:19:02.867Z,33.93
2018-01-22T03:21:30.721Z,42.87
2018-01-22T03:23:58.503Z,30.93
2018-01-22T03:26:26.290Z,25.63
2018-01-22T03:28:54.114Z,42.37
2018-01-22T03:31:21.885Z,33.73
2018-01-22T03:33:49.679Z,40.50
2018-01-22T03:36:17.456Z,38.37
2018-01-22T03:38:45.216Z,34.47
2018-01-22T03:41:13.060Z,29.43
2018-01-22T03:43:40.871Z,31.17
2018-01-22T03:46:08.668Z,37.17
2018-01-22T03:48:36.977Z,45.80
2018-01-22T03:51:04.752Z,30.30
2018-01-22T03:53:32.543Z,43.87
2018-01-22T03:56:00.334Z,34.73
2018-01-22T03:58:28.091Z,36.43
2018-01-22T04:00:55.975Z,34.37
2018-01-22T04:03:23.755Z,45.93
2018-01-22T04:05:51.554Z,49.87
2018-01-22T04:08:19.312Z,43.77
2018-01-22T04:10:47.139Z,41.07
2018-01-22T04:13:15.470Z,33.83
2018-01-22T04:15:43.308Z,27.30
2018-01-22T04:18:11.075Z,47.37
2018-01-22T04:20:38.860Z,44.53
2018-01-22T04:23:06.628Z,36.90
2018-01-22T04:25:34.403Z,38.30
2018-01-22T04:28:02.188Z,36.27
2018-01-22T04:30:29.959Z,32.30
2018-01-22T04:32:57.716Z,45.83
2018-01-22T04:35:25.660Z,38.30
2018-01-22T04:37:53.432Z,40.80
2018-01-22T04:40:21.223Z,38.00
2018-01-22T04:42:48.964Z,40.73
2018-01-22T04:45:16.764Z,43.23
2018-01-22T04:47:44.586Z,46.40
2018-01-22T04:50:12.673Z,33.80
2018-01-22T04:52:40.528Z,32.57
2018-01-22T04:55:08.330Z,31.73
2018-01-22T04:57:36.858Z,52.90
2018-01-22T05:00:04.669Z,30.63
2018-01-22T05:02:32.426Z,33.37
2018-01-22T05:05:00.272Z,29.87
2018-01-22T05:07:28.038Z,40.33
2018-01-22T05:09:55.880Z,34.03
2018-01-22T05:12:23.649Z,41.20
2018-01-22T05:14:51.449Z,40.20
2018-01-22T05:17:19.297Z,37.13
2018-01-22T05:19:47.126Z,55.90
2018-01-22T05:22:14.930Z,44.27
2018-01-22T05:24:42.706Z,51.90
2018-01-22T05:27:10.490Z,49.67
2018-01-22T05:29:38.257Z,38.57
2018-01-22T05:32:06.043Z,50.43
2018-01-22T05:34:33.865Z,31.60
2018-01-22T05:37:01.765Z,48.40
2018-01-22T05:39:29.719Z,44.40
2018-01-22T05:41:57.556Z,46.93
2018-01-22T05:44:25.311Z,32.00
2018-01-22T05:46:53.116Z,40.37
2018-01-22T05:49:20.883Z,54.43
2018-01-22T05:51:48.662Z,44.53
2018-01-22T05:54:16.434Z,38.37
2018-01-22T05:56:44.266Z,49.07
2018-01-22T05:59:12.074Z,42.27
2018-01-22T06:01:39.845Z,39.97
2018-01-22T06:04:08.555Z,42.03
2018-01-22T06:06:36.356Z,45.30
2018-01-22T06:09:04.209Z,39.00
2018-01-22T06:11:32.092Z,35.97
2018-01-22T06:13:59.925Z,30.73
2018-01-22T06:16:27.714Z,32.97
2018-01-22T06:18:55.387Z,38.63
2018-01-22T06:21:23.223Z,40.70
2018-01-22T06:23:50.978Z,47.33
2018-01-22T06:26:19.966Z,38.47
2018-01-22T06:28:47.795Z,42.80
2018-01-22T06:31:15.596Z,56.13
2018-01-22T06:33:43.397Z,54.47
2018-01-22T06:36:11.175Z,37.30
2018-01-22T06:38:40.792Z,24.50
2018-01-22T06:41:08.621Z,37.93
2018-01-22T06:43:36.363Z,36.57
2018-01-22T06:46:04.082Z,47.90
2018-01-22T06:48:32.512Z,34.07
2018-01-22T06:51:00.330Z,37.40
2018-01-22T06:53:28.092Z,40.03
2018-01-22T06:55:55.942Z,39.27
2018-01-22T06:58:23.721Z,44.63
2018-01-22T07:00:51.527Z,32.30
2018-01-22T07:03:20.351Z,32.83
2018-01-22T07:05:48.149Z,38.20
2018-01-22T07:08:15.912Z,26.63
2018-01-22T07:10:43.716Z,37.33
2018-01-22T07:13:11.531Z,41.33
2018-01-22T07:15:39.319Z,35.00
2018-01-22T07:18:07.112Z,37.87
2018-01-22T07:20:34.883Z,40.63
2018-01-22T07:23:02.692Z,34.60
2018-01-22T07:25:30.506Z,35.93
2018-01-22T07:27:58.294Z,25.80
2018-01-22T07:30:26.069Z,31.20
2018-01-22T07:32:53.873Z,31.43
2018-01-22T07:35:21.665Z,45.93
2018-01-22T07:37:50.273Z,35.70
2018-01-22T07:40:18.020Z,46.43
2018-01-22T07:42:45.826Z,28.27
2018-01-22T07:45:13.591Z,38.27
2018-01-22T07:47:41.583Z,34.37
2018-01-22T07:50:09.365Z,37.53
2018-01-22T07:52:37.212Z,38.83
2018-01-22T07:55:04.975Z,28.10
2018-01-22T07:57:32.803Z,33.50
2018-01-22T08:00:00.579Z,31.80
2018-01-22T08:02:28.389Z,38.40
2018-01-22T08:04:56.181Z,32.20
2018-01-22T08:07:23.999Z,34.37
2018-01-22T08:09:52.545Z,41.07
2018-01-22T08:12:20.536Z,36.73
2018-01-22T08:14:48.286Z,43.43
2018-01-22T08:17:16.083Z,31.60
2018-01-22T08:19:43.867Z,44.77
2018-01-22T08:22:11.677Z,40.40
2018-01-22T08:24:39.433Z,37.17
2018-01-22T08:27:07.625Z,27.33
2018-01-22T08:29:35.430Z,46.20
2018-01-22T08:32:03.299Z,44.93
2018-01-22T08:34:31.072Z,35.63
2018-01-22T08:36:58.944Z,37.53
2018-01-22T08:39:26.699Z,43.30
2018-01-22T08:41:54.512Z,36.63
2018-01-22T08:44:22.534Z,33.47
2018-01-22T08:46:51.339Z,35.17
2018-01-22T08:49:19.104Z,40.10
2018-01-22T08:51:46.925Z,35.40
2018-01-22T08:54:14.740Z,41.37
2018-01-22T08:56:42.492Z,39.37
2018-01-22T08:59:10.303Z,35.73
2018-01-22T09:01:38.098Z,45.40
2018-01-22T09:04:13.078Z,28.00
2018-01-22T09:06:41.638Z,34.33
2018-01-22T09:09:09.509Z,36.70
2018-01-22T09:11:37.521Z,37.50
2018-01-22T09:14:05.311Z,31.97
2018-01-22T09:16:33.085Z,36.10
2018-01-22T09:19:00.899Z,34.70
2018-01-22T09:21:28.969Z,40.50
2018-01-22T09:23:57.247Z,40.63
2018-01-22T09:26:25.018Z,40.00
2018-01-22T09:28:52.842Z,35.57
2018-01-22T09:31:20.635Z,33.40
2018-01-22T09:33:48.435Z,39.67
2018-01-22T09:36:18.301Z,36.50
2018-01-22T09:38:46.736Z,39.90
2018-01-22T09:41:14.506Z,36.07
2018-01-22T09:43:42.310Z,36.80
2018-01-22T09:46:10.077Z,31.17
2018-01-22T09:48:37.872Z,32.67
2018-01-22T09:51:07.020Z,29.90
2018-01-22T09:53:35.905Z,37.87
2018-01-22T09:56:04.444Z,34.13
2018-01-22T09:58:32.912Z,35.00
2018-01-22T10:01:02.746Z,33.97
2018-01-22T10:03:33.228Z,28.73
2018-01-22T10:06:01.988Z,30.03
2018-01-22T10:08:29.802Z,32.27
2018-01-22T10:10:59.236Z,38.57
2018-01-22T10:13:27.022Z,30.73
2018-01-22T10:15:54.831Z,27.23
2018-01-22T10:18:22.622Z,24.80
2018-01-22T10:20:51.362Z,27.40
2018-01-22T10:23:19.205Z,22.03
2018-01-22T10:25:46.971Z,22.87
2018-01-22T10:28:14.770Z,29.33
2018-01-22T10:30:42.511Z,31.60
2018-01-22T10:33:10.539Z,24.67
2018-01-22T10:35:38.952Z,23.23
2018-01-22T10:38:06.753Z,37.90
2018-01-22T10:40:34.563Z,32.50
2018-01-22T10:43:03.842Z,29.90
2018-01-22T10:45:31.611Z,31.60
2018-01-22T10:47:59.408Z,22.50
2018-01-22T10:50:27.152Z,30.30
2018-01-22T10:52:57.432Z,21.23
2018-01-22T10:55:25.790Z,26.00
2018-01-22T10:57:54.138Z,23.00
2018-01-22T11:00:21.966Z,33.37
2018-01-22T11:02:49.623Z,28.50
2018-01-22T11:05:18.055Z,27.97
2018-01-22T11:07:45.845Z,28.73
2018-01-22T11:10:14.376Z,27.50
2018-01-22T11:12:42.141Z,27.67
2018-01-22T11:15:11.515Z,24.30
2018-01-22T11:17:39.373Z,27.00
2018-01-22T11:20:07.145Z,20.93
2018-01-22T11:22:34.890Z,27.23
2018-01-22T11:25:05.260Z,21.67
2018-01-22T11:27:33.217Z,24.80
2018-01-22T11:30:01.055Z,25.53
2018-01-22T11:32:28.846Z,17.90
2018-01-22T11:34:56.659Z,30.40
2018-01-22T11:37:25.304Z,25.93
2018-01-22T11:39:53.183Z,18.03
2018-01-22T11:42:21.002Z,21.03
2018-01-22T11:44:48.844Z,29.57
2018-01-22T11:47:17.512Z,25.33
2018-01-22T11:49:45.247Z,23.60
2018-01-22T11:52:13.000Z,28.87
2018-01-22T11:54:41.653Z,27.00
2018-01-22T11:57:09.764Z,22.97
2018-01-22T11:59:37.589Z,19.27
2018-01-22T12:02:05.370Z,25.80
2018-01-22T12:04:33.202Z,27.67
2018-01-22T12:07:03.900Z,21.77
2018-01-22T12:09:31.695Z,25.00
2018-01-22T12:11:59.572Z,25.63
2018-01-22T12:14:27.377Z,21.47
2018-01-22T12:16:55.214Z,26.13
2018-01-22T12:19:23.559Z,19.60
2018-01-22T12:21:52.363Z,15.93
2018-01-22T12:24:20.160Z,27.13
2018-01-22T12:26:47.913Z,20.27
2018-01-22T12:29:15.734Z,23.90
2018-01-22T12:31:44.340Z,26.67
2018-01-22T12:34:13.081Z,19.10
2018-01-22T12:36:41.711Z,26.43
2018-01-22T12:39:09.568Z,20.97
2018-01-22T12:41:37.315Z,22.97
2018-01-22T12:44:05.131Z,20.53
2018-01-22T12:46:32.924Z,27.63
2018-01-22T12:49:00.715Z,21.43
2018-01-22T12:51:28.539Z,21.13
2018-01-22T12:53:56.323Z,20.93
2018-01-22T12:56:24.202Z,29.93
2018-01-22T12:58:51.991Z,21.70
2018-01-22T13:01:20.717Z,23.77
2018-01-22T13:03:48.482Z,22.70
2018-01-22T13:06:16.296Z,21.50
2018-01-22T13:08:44.096Z,23.67
2018-01-22T13:11:11.942Z,20.97
2018-01-22T13:13:39.709Z,25.90
2018-01-22T13:16:10.644Z,17.87
2018-01-22T13:18:38.393Z,21.73
2018-01-22T13:21:06.225Z,25.03
2018-01-22T13:23:34.072Z,19.13
2018-01-22T13:26:02.150Z,19.20
2018-01-22T13:28:29.932Z,21.30
2018-01-22T13:30:57.765Z,19.83
2018-01-22T13:33:25.526Z,18.87
2018-01-22T13:35:53.402Z,23.33
2018-01-22T13:38:21.190Z,24.60
2018-01-22T13:43:50.288Z,17.83
2018-01-22T13:46:18.071Z,16.73
2018-01-22T13:48:45.849Z,26.33
2018-01-22T13:51:13.694Z,20.73
2018-01-22T13:53:41.484Z,25.07
2018-01-22T13:56:09.296Z,23.50
2018-01-22T13:58:37.055Z,20.80
2018-01-22T14:01:05.832Z,18.60
2018-01-22T14:03:33.593Z,27.60
2018-01-22T14:06:01.389Z,20.97
2018-01-22T14:08:29.196Z,20.13
2018-01-22T14:10:57.041Z,23.37
2018-01-22T14:13:24.833Z,19.63
2018-01-22T14:15:52.689Z,24.37
2018-01-22T14:18:20.441Z,23.17
2018-01-22T14:20:48.237Z,25.07
2018-01-22T14:23:16.013Z,22.10
2018-01-22T14:25:44.590Z,25.93
2018-01-22T14:28:12.358Z,22.40
2018-01-22T14:30:40.170Z,23.10
2018-01-22T14:33:07.949Z,21.80
2018-01-22T14:35:36.585Z,20.83
2018-01-22T14:38:04.386Z,22.97
2018-01-22T14:40:32.171Z,21.30
2018-01-22T14:42:59.935Z,25.70
2018-01-22T14:45:27.812Z,20.00
2018-01-22T14:47:55.469Z,27.97
2018-01-22T14:50:23.285Z,31.00
2018-01-22T14:52:51.020Z,26.37
2018-01-22T14:55:18.820Z,26.57
2018-01-22T14:57:46.951Z,22.33
2018-01-22T15:00:14.747Z,22.70
2018-01-22T15:02:42.478Z,20.23
2018-01-22T15:05:10.241Z,24.23
2018-01-22T15:07:38.030Z,25.00
2018-01-22T15:10:05.697Z,25.17
2018-01-22T15:12:33.979Z,24.37
2018-01-22T15:15:03.194Z,23.57
2018-01-22T15:17:31.784Z,20.60
2018-01-22T15:19:59.501Z,25.57
2018-01-22T15:22:27.234Z,21.57
2018-01-22T15:24:54.909Z,23.27
2018-01-22T15:27:22.655Z,20.93
2018-01-22T15:29:50.370Z,27.27
2018-01-22T15:32:18.089Z,23.00
2018-01-22T15:34:45.756Z,22.33
2018-01-22T15:37:13.457Z,22.40
2018-01-22T15:39:41.130Z,23.00
2018-01-22T15:42:08.844Z,25.07
2018-01-22T15:44:36.555Z,17.60
2018-01-22T15:49:41.425Z,24.43
2018-01-22T15:52:09.140Z,23.80
2018-01-22T15:54:40.039Z,23.17
2018-01-22T15:57:08.718Z,23.80
2018-01-22T15:59:36.501Z,23.93
2018-01-22T16:02:11.584Z,28.13
2018-01-22T16:04:42.956Z,23.70
2018-01-22T16:07:12.424Z,26.17
2018-01-22T16:09:42.168Z,25.93
2018-01-22T16:12:10.020Z,27.77
2018-01-22T16:14:37.798Z,25.03
2018-01-22T16:17:05.596Z,29.17
2018-01-22T16:19:33.325Z,27.80
2018-01-22T16:22:01.108Z,25.70
2018-01-22T16:24:28.870Z,24.90
2018-01-22T16:26:56.668Z,27.27
2018-01-22T16:29:24.491Z,48.57
2018-01-22T16:31:54.153Z,30.43
2018-01-22T16:34:21.906Z,26.90
2018-01-22T16:36:49.673Z,29.93
2018-01-22T16:39:17.436Z,27.43
2018-01-22T16:41:46.199Z,33.37
2018-01-22T16:44:13.971Z,28.03
2018-01-22T16:46:41.761Z,30.50
2018-01-22T16:49:09.529Z,30.10
2018-01-22T16:51:37.247Z,26.40
2018-01-22T16:54:04.969Z,29.50
2018-01-22T16:56:32.888Z,28.60
2018-01-22T16:59:01.546Z,25.20
2018-01-22T17:01:29.281Z,27.87
2018-01-22T17:03:57.440Z,32.77
2018-01-22T17:06:25.188Z,27.57
2018-01-22T17:08:52.922Z,28.47
2018-01-22T17:11:20.676Z,31.87
2018-01-22T17:13:48.385Z,27.83
2018-01-22T17:16:16.152Z,28.03
2018-01-22T17:18:43.877Z,29.67
2018-01-22T17:21:11.633Z,30.13
2018-01-22T17:23:39.356Z,28.03
2018-01-22T17:26:07.157Z,28.30
2018-01-22T17:28:34.894Z,28.17
2018-01-22T17:31:02.697Z,31.40
2018-01-22T17:33:30.454Z,31.20
2018-01-22T17:35:58.168Z,36.80
2018-01-22T17:38:25.943Z,30.60
2018-01-22T17:40:53.711Z,85.97
2018-01-22T17:43:21.495Z,33.77
2018-01-22T17:45:49.298Z,32.00
2018-01-22T17:48:17.096Z,28.67
2018-01-22T17:50:44.976Z,32.83
2018-01-22T17:53:12.724Z,32.80
2018-01-22T17:55:40.527Z,31.90
2018-01-22T17:58:08.371Z,31.63
2018-01-22T18:00:36.107Z,31.87
2018-01-22T18:03:03.953Z,30.77
2018-01-22T18:05:31.695Z,31.37
2018-01-22T18:07:59.508Z,32.00
2018-01-22T18:10:27.235Z,32.93
2018-01-22T18:12:54.973Z,31.67
2018-01-22T18:15:22.692Z,32.40
2018-01-22T18:17:50.536Z,34.60
2018-01-22T18:20:18.353Z,31.63
2018-01-22T18:22:46.228Z,35.10
2018-01-22T18:25:13.944Z,32.67
2018-01-22T18:27:41.764Z,34.30
2018-01-22T18:30:09.505Z,34.00
2018-01-22T18:32:37.256Z,30.80
2018-01-22T18:35:05.009Z,37.63
2018-01-22T18:37:32.859Z,32.50
2018-01-22T18:40:00.579Z,34.53
2018-01-22T18:42:28.286Z,37.27
2018-01-22T18:44:56.132Z,35.57
2018-01-22T18:47:24.517Z,34.13
2018-01-22T18:49:52.306Z,36.50
2018-01-22T18:52:20.204Z,29.10
2018-01-22T18:54:48.148Z,32.93
2018-01-22T18:57:15.991Z,32.13
2018-01-22T18:59:43.913Z,33.37
2018-01-22T19:02:11.727Z,36.50
2018-01-22T19:04:39.751Z,35.57
2018-01-22T19:07:07.596Z,33.40
2018-01-22T19:09:35.478Z,34.77
2018-01-22T19:12:03.426Z,38.27
2018-01-22T19:14:31.607Z,33.93
2018-01-22T19:16:59.424Z,32.50
2018-01-22T19:19:27.269Z,34.23
2018-01-22T19:21:55.144Z,35.67
2018-01-22T19:24:23.085Z,35.27
2018-01-22T19:26:50.936Z,37.40
2018-01-22T19:29:18.824Z,37.27
2018-01-22T19:31:46.664Z,37.00
2018-01-22T19:34:14.592Z,40.50
2018-01-22T19:36:42.419Z,36.47
2018-01-22T19:39:11.357Z,33.10
2018-01-22T19:41:39.162Z,37.70
2018-01-22T19:44:07.070Z,38.90
2018-01-22T19:46:35.029Z,32.77
2018-01-22T19:49:02.892Z,34.33
2018-01-22T19:51:30.765Z,37.10
2018-01-22T19:53:59.287Z,38.10
2018-01-22T19:56:27.153Z,38.53
2018-01-22T19:58:55.048Z,37.17
2018-01-22T20:01:22.996Z,43.47
2018-01-22T20:03:50.922Z,37.57
2018-01-22T20:06:18.801Z,41.50
2018-01-22T20:08:46.796Z,39.67
2018-01-22T20:11:14.676Z,42.67
2018-01-22T20:13:42.911Z,38.93
2018-01-22T20:16:10.751Z,40.63
2018-01-22T20:18:38.591Z,35.83
2018-01-22T20:21:06.370Z,36.10
2018-01-22T20:23:34.196Z,36.83
2018-01-22T20:26:02.074Z,34.87
2018-01-22T20:28:30.006Z,37.00
2018-01-22T20:30:58.019Z,39.33
2018-01-22T20:33:26.022Z,38.57
2018-01-22T20:35:53.949Z,40.33
2018-01-22T20:38:21.761Z,38.07
2018-01-22T20:40:49.686Z,32.50
2018-01-22T20:43:17.622Z,38.23
2018-01-22T20:45:45.572Z,38.10
2018-01-22T20:48:13.453Z,39.40
2018-01-22T20:50:41.431Z,36.50
2018-01-22T20:53:09.295Z,41.80
2018-01-22T20:55:37.164Z,42.20
2018-01-22T20:58:04.983Z,44.87
2018-01-22T21:00:32.955Z,37.67
2018-01-22T21:03:00.838Z,46.60
2018-01-22T21:05:28.709Z,42.73
2018-01-22T21:07:56.545Z,42.30
2018-01-22T21:10:24.381Z,45.70
2018-01-22T21:12:52.273Z,41.93
2018-01-22T21:15:20.714Z,47.40
2018-01-22T21:17:48.821Z,47.53
2018-01-22T21:20:16.713Z,39.27
2018-01-22T21:22:45.189Z,45.70
2018-01-22T21:25:13.142Z,46.50
2018-01-22T21:27:41.066Z,40.63
2018-01-22T21:30:10.444Z,39.63
2018-01-22T21:32:38.573Z,41.80
2018-01-22T21:35:06.617Z,46.67
2018-01-22T21:37:36.905Z,45.63
2018-01-22T21:40:05.150Z,45.67
2018-01-22T21:42:33.219Z,38.97
2018-01-22T21:45:02.090Z,44.40
2018-01-22T21:47:30.057Z,40.60
2018-01-22T21:49:58.058Z,45.97
2018-01-22T21:52:26.290Z,43.23
2018-01-22T21:54:54.237Z,42.40
2018-01-22T21:57:22.171Z,48.43
2018-01-22T21:59:51.794Z,47.10
2018-01-22T22:02:26.321Z,45.57
2018-01-22T22:04:54.599Z,53.87
2018-01-22T22:07:23.738Z,50.50
2018-01-22T22:09:51.704Z,51.40
2018-01-22T22:12:20.918Z,49.10
2018-01-22T22:14:52.586Z,52.10
2018-01-22T22:19:53.924Z,56.73
2018-01-22T22:22:21.700Z,59.43
2018-01-22T22:24:49.565Z,54.47
2018-01-22T22:27:17.325Z,56.80
2018-01-22T22:29:45.105Z,65.40
2018-01-22T22:32:13.964Z,63.90
2018-01-22T22:34:41.797Z,64.40
2018-01-22T22:37:09.557Z,67.67
2018-01-22T22:39:37.469Z,62.10
2018-01-22T22:42:05.289Z,78.20
2018-01-22T22:44:33.152Z,62.40
2018-01-22T22:47:01.014Z,69.07
2018-01-22T22:49:28.798Z,84.50
2018-01-22T22:51:56.576Z,83.23
2018-01-22T22:54:24.382Z,82.40
2018-01-22T22:56:52.287Z,89.17
2018-01-22T22:59:20.128Z,108.90
2018-01-22T23:01:48.206Z,97.43
2018-01-22T23:04:15.987Z,69.33
2018-01-22T23:06:43.874Z,88.50
2018-01-22T23:09:11.908Z,90.33
2018-01-22T23:11:42.006Z,96.40
2018-01-22T23:14:09.856Z,86.80
2018-01-22T23:16:38.715Z,90.97
2018-01-22T23:19:06.640Z,113.17
2018-01-22T23:21:37.708Z,79.23
2018-01-22T23:24:07.953Z,117.40
2018-01-22T23:26:35.940Z,102.37
2018-01-22T23:29:04.733Z,101.87
2018-01-22T23:31:32.699Z,115.27
2018-01-22T23:34:00.563Z,133.70
2018-01-22T23:36:29.045Z,113.93
2018-01-22T23:39:00.550Z,93.37
2018-01-22T23:41:29.359Z,139.00
2018-01-22T23:43:57.927Z,88.40
2018-01-22T23:46:25.668Z,92.43
2018-01-22T23:48:53.423Z,144.07
2018-01-22T23:51:21.273Z,137.13
2018-01-22T23:53:49.069Z,167.73
2018-01-22T23:56:16.890Z,198.53
2018-01-22T23:58:44.688Z,185.93
